Latest Weather Observations for Moorabbin Airport

IDV60801

Issued at 4:35 am EST Thursday 28 August 2014 (issued every 30 minutes, with the page automatically refreshed every 10 minutes)

About weather observations | Map of weather stations | Latest weather observations for VIC | Other Formats
Station Details ID: 086077 Name: MOORABBIN AIRPORT Lat: -37.98 Lon: 145.10 Height: 12.1 m
Data from the previous 72 hours. | See also: Recent months at Moorabbin Airport
Date/Time
EST
Temp
°C
App
Temp
°C
Dew
Point
Rel
Hum
%
Delta-T
°C
Wind Press
QNH
hPa
Press
MSL
hPa
Rain
since 9 am
mm
Dir
 
Spd
km/h
Gust
km/h
Spd
kts
Gust
kts
28/04:30am 8.7 7.1 8.7 100 0.0 NE 7 11 4 6 1028.5 1028.6 0.0
28/04:00am 8.9 7.9 8.9 100 0.0 NNE 4 11 2 6 1028.5 1028.6 0.0
28/03:30am 8.5 6.5 8.5 100 0.0 NNE 9 13 5 7 1028.6 1028.7 0.0
28/03:00am 8.7 7.3 8.7 100 0.0 NNE 6 9 3 5 1028.6 1028.7 0.0
28/02:30am 8.9 7.5 8.9 100 0.0 NNE 6 7 3 4 1028.8 1028.9 0.0
28/02:00am 9.1 7.6 9.1 100 0.0 E 7 9 4 5 1028.8 1028.9 0.0
28/01:30am 9.1 7.8 9.1 100 0.0 ENE 6 9 3 5 1028.7 1028.8 0.0
28/01:00am 9.2 8.7 9.2 100 0.0 ESE 2 9 1 5 1029.1 1029.2 0.0
28/12:30am 9.2 8.3 9.2 100 0.0 SSE 4 7 2 4 1029.0 1029.1 0.0
28/12:00am 9.3 8.4 9.3 100 0.0 SW 4 9 2 5 1029.1 1029.2 0.0
 
Date/Time
EST
Temp
°C
App
Temp
°C
Dew
Point
Rel
Hum
%
Delta-T
°C
Wind Press
QNH
hPa
Press
MSL
hPa
Rain
since 9 am
mm
Dir
 
Spd
km/h
Gust
km/h
Spd
kts
Gust
kts
27/11:30pm 9.2 7.9 9.2 100 0.0 SSW 6 9 3 5 1029.1 1029.2 0.0
27/11:00pm 9.2 9.0 9.2 100 0.0 CALM 0 4 0 2 1029.0 1029.1 0.0
27/10:30pm 9.1 7.8 9.1 100 0.0 E 6 9 3 5 1028.8 1028.9 0.0
27/10:00pm 9.2 7.0 9.2 100 0.0 ESE 11 13 6 7 1028.7 1028.8 0.0
27/09:30pm 9.3 6.7 9.2 99 0.0 E 13 17 7 9 1028.6 1028.7 0.0
27/09:00pm 9.7 7.6 9.6 99 0.0 ESE 11 15 6 8 1028.7 1028.8 0.0
27/08:30pm 9.6 7.0 9.5 99 0.0 SE 13 15 7 8 1028.7 1028.8 0.0
27/08:16pm 9.8 8.1 9.7 99 0.1 SE 9 11 5 6 1028.6 1028.7 0.0
27/08:00pm 9.3 7.1 9.2 99 0.0 ESE 11 15 6 8 1028.3 1028.4 0.0
27/07:30pm 9.4 9.3 9.3 99 0.0 CALM 0 0 0 0 1028.2 1028.3 0.0
27/07:00pm 10.6 10.4 10.4 99 0.1 WSW 2 6 1 3 1027.8 1027.9 0.0
27/06:30pm 10.5 10.6 10.3 99 0.1 CALM 0 4 0 2 1027.6 1027.7 0.0
27/06:00pm 10.8 9.6 10.3 97 0.3 SW 7 9 4 5 1027.6 1027.7 0.0
27/05:43pm 11.5 10.1 10.9 96 0.3 SW 9 17 5 9 1027.6 1027.7 0.0
27/05:30pm 11.7 9.5 10.8 94 0.5 SSW 13 19 7 10 1027.5 1027.6 0.0
27/05:00pm 12.8 10.1 10.2 84 1.3 SW 15 20 8 11 1027.3 1027.4 0.0
27/04:30pm 14.7 11.8 9.5 71 2.7 SW 15 20 8 11 1027.1 1027.2 0.0
27/04:00pm 16.5 14.6 9.0 61 3.8 SSW 9 11 5 6 1026.9 1027.0 0.0
27/03:30pm 15.8 14.3 9.2 65 3.4 S 7 11 4 6 1026.9 1027.0 0.0
27/03:00pm 15.1 13.5 10.1 72 2.6 SSW 9 15 5 8 1027.1 1027.2 0.0
27/02:30pm 13.9 11.9 10.3 79 1.9 SW 11 17 6 9 1027.1 1027.2 0.0
27/02:00pm 12.9 9.6 9.5 80 1.7 SW 17 28 9 15 1027.4 1027.5 0.0
27/01:30pm 14.2 13.6 11.7 85 1.3 SSW 6 9 3 5 1027.2 1027.3 0.0
27/01:00pm 12.9 11.2 11.1 89 0.9 SSW 11 15 6 8 1027.5 1027.6 0.0
27/12:58pm 13.1 11.5 11.5 90 0.8 SSW 11 15 6 8 1027.5 1027.6 0.0
27/12:43pm 12.3 9.4 10.9 91 0.7 SW 17 20 9 11 1027.7 1027.8 0.0
27/12:30pm 12.5 9.0 10.2 86 1.2 SW 19 24 10 13 1027.8 1027.9 0.0
27/12:00pm 15.3 14.9 12.4 83 1.6 SSW 6 7 3 4 1027.9 1028.0 0.0
27/11:30am 13.2 12.5 11.9 92 0.7 SSW 7 11 4 6 1028.3 1028.4 0.0
27/11:14am 12.1 10.1 11.6 97 0.3 SW 13 17 7 9 1028.5 1028.6 0.0
27/11:00am 11.1 8.6 10.9 99 0.1 SW 15 17 8 9 1028.6 1028.7 0.0
27/10:39am 11.6 9.6 11.6 100 0.0 SSW 13 17 7 9 1028.6 1028.7 0.0
27/10:30am 12.3 10.9 12.3 100 0.0 SW 11 13 6 7 1028.5 1028.6 0.0
27/10:00am 12.1 12.8 12.1 100 0.0 CALM 0 6 0 3 1028.6 1028.7 0.0
27/09:54am 11.5 11.6 11.5 100 0.0 SE 2 6 1 3 1028.5 1028.6 0.0
27/09:47am 11.8 11.6 11.8 100 0.0 SE 4 7 2 4 1028.4 1028.5 0.0
27/09:30am 10.9 10.4 10.9 100 0.0 E 4 9 2 5 1028.2 1028.3 0.0
27/09:00am 9.8 8.7 9.8 100 0.0 NNE 6 7 3 4 1028.2 1028.3 0.0
27/08:30am 9.4 8.5 9.4 100 0.0 NW 4 7 2 4 1028.2 1028.3 0.0
27/08:00am 9.2 9.0 9.2 100 0.0 CALM 0 0 0 0 1028.0 1028.1 0.0
27/07:30am 9.2 8.7 9.2 100 0.0 NNW 2 7 1 4 1027.9 1028.0 0.0
27/07:00am 9.4 8.2 9.4 100 0.0 NNE 6 9 3 5 1027.4 1027.5 0.0
27/06:30am 9.4 7.6 9.4 100 0.0 NE 9 11 5 6 1027.0 1027.1 0.0
27/06:00am 9.4 8.2 9.4 100 0.0 N 6 7 3 4 1027.0 1027.1 0.0
27/05:30am 9.4 8.9 9.4 100 0.0 NNW 2 7 1 4 1027.0 1027.1 0.0
27/05:00am 9.4 8.5 9.4 100 0.0 WNW 4 7 2 4 1026.7 1026.8 0.0
27/04:30am 9.6 9.5 9.6 100 0.0 CALM 0 0 0 0 1026.7 1026.8 0.0
27/04:00am 9.4 8.9 9.4 100 0.0 W 2 6 1 3 1026.6 1026.7 0.0
27/03:30am 9.7 8.5 9.7 100 0.0 N 6 7 3 4 1026.4 1026.5 0.0
27/03:00am 10.5 9.0 10.5 100 0.0 N 9 13 5 7 1026.2 1026.3 0.0
27/02:30am 11.0 10.0 11.0 100 0.0 NW 7 13 4 7 1026.4 1026.5 0.0
27/02:00am 11.2 9.5 11.2 100 0.0 N 11 15 6 8 1026.3 1026.4 0.0
27/01:30am 11.3 9.6 11.3 100 0.0 NNW 11 15 6 8 1026.3 1026.4 0.0
27/01:00am 11.2 9.5 11.2 100 0.0 N 11 17 6 9 1026.2 1026.3 0.0
27/12:30am 11.0 9.2 11.0 100 0.0 N 11 15 6 8 1026.2 1026.3 0.0
27/12:00am 10.4 8.9 10.4 100 0.0 N 9 13 5 7 1026.3 1026.4 0.0
 
Date/Time
EST
Temp
°C
App
Temp
°C
Dew
Point
Rel
Hum
%
Delta-T
°C
Wind Press
QNH
hPa
Press
MSL
hPa
Rain
since 9 am
mm
Dir
 
Spd
km/h
Gust
km/h
Spd
kts
Gust
kts
26/11:32pm 8.8 7.2 8.7 99 0.0 N 7 7 4 4 1026.3 1026.4 0.0
26/11:30pm 8.7 7.1 8.6 99 0.0 N 7 9 4 5 1026.3 1026.4 0.0
26/11:00pm 7.9 6.6 7.8 99 0.0 N 4 7 2 4 1026.2 1026.3 0.0
26/10:30pm 9.0 8.0 8.9 99 0.0 NE 4 7 2 4 1026.3 1026.4 0.0
26/10:16pm 9.3 7.8 9.2 99 0.0 N 7 7 4 4 1026.2 1026.3 0.0
26/10:06pm 8.9 7.5 8.8 99 0.0 NNE 6 7 3 4 1026.4 1026.5 0.0
26/10:00pm 8.9 7.3 8.8 99 0.0 NNE 7 9 4 5 1026.3 1026.4 0.0
26/09:44pm 9.3 8.0 9.2 99 0.0 N 6 7 3 4 1026.4 1026.5 0.0
26/09:30pm 8.4 6.8 7.8 96 0.3 ENE 6 7 3 4 1026.3 1026.4 0.0
26/09:00pm 9.6 9.4 9.1 97 0.2 CALM 0 0 0 0 1026.4 1026.5 0.0
26/08:30pm 9.7 9.5 9.1 96 0.3 CALM 0 0 0 0 1026.2 1026.3 0.0
26/08:00pm 10.0 9.8 8.9 93 0.5 CALM 0 0 0 0 1026.0 1026.1 0.0
26/07:30pm 11.4 11.2 10.3 93 0.6 WNW 2 7 1 4 1025.9 1026.0 0.0
26/07:00pm 11.6 10.5 10.0 90 0.8 WNW 6 7 3 4 1025.9 1026.0 0.0
26/06:30pm 12.0 10.8 9.6 85 1.2 W 6 7 3 4 1025.6 1025.7 0.0
26/06:00pm 13.0 12.0 10.4 84 1.3 SW 6 7 3 4 1025.4 1025.5 0.0
26/05:30pm 13.9 12.8 10.5 80 1.8 SW 7 11 4 6 1025.4 1025.5 0.0
26/05:00pm 14.3 12.4 10.5 78 2.0 SW 11 13 6 7 1025.2 1025.3 0.0
26/04:30pm 14.1 11.3 10.1 77 2.1 SW 15 17 8 9 1025.3 1025.4 0.0
26/04:00pm 14.3 11.9 9.9 75 2.3 SW 13 19 7 10 1025.5 1025.6 0.0
26/03:30pm 14.4 11.2 10.0 75 2.3 SW 17 20 9 11 1025.4 1025.5 0.0
26/03:00pm 14.1 11.2 9.7 75 2.3 WSW 15 20 8 11 1025.5 1025.6 0.0
26/02:30pm 14.3 10.7 9.7 74 2.4 WSW 19 20 10 11 1025.6 1025.7 0.0
26/02:00pm 16.2 14.4 10.7 70 2.9 SSW 11 13 6 7 1025.8 1025.9 0.0
26/01:30pm 16.0 14.9 10.5 70 2.9 S 7 11 4 6 1026.0 1026.1 0.0
26/01:00pm 16.0 14.7 11.2 73 2.6 W 9 15 5 8 1026.5 1026.6 0.0
26/12:30pm 14.7 12.3 10.1 74 2.4 W 13 19 7 10 1026.9 1027.0 0.0
26/12:00pm 14.6 13.3 10.0 74 2.4 NW 7 11 4 6 1027.2 1027.3 0.0
26/11:30am 13.7 12.0 9.7 77 2.1 NW 9 15 5 8 1027.4 1027.5 0.0
26/11:00am 13.2 11.2 10.2 82 1.5 N 11 17 6 9 1027.9 1028.0 0.0
26/10:30am 12.3 9.9 9.9 85 1.2 N 13 15 7 8 1028.0 1028.1 0.0
26/10:00am 12.3 10.8 10.4 88 1.0 N 9 13 5 7 1028.2 1028.3 0.0
26/09:56am 12.2 11.0 10.4 89 0.9 N 7 11 4 6 1028.2 1028.3 0.0
26/09:30am 11.7 10.3 10.9 95 0.4 NNE 9 13 5 7 1028.3 1028.4 0.0
26/09:20am 11.5 9.4 11.2 98 0.2 ENE 13 17 7 9 1028.3 1028.4 0.0
26/09:00am 10.8 8.6 10.8 100 0.0 ENE 13 17 7 9 1028.2 1028.3 0.6
26/08:55am 10.6 8.3 10.6 100 0.0 ENE 13 17 7 9 1028.2 1028.3 0.6
26/08:30am 8.8 6.8 8.8 100 0.0 NE 9 13 5 7 1028.4 1028.5 0.6
26/08:00am 8.0 5.8 8.0 100 0.0 NE 9 13 5 7 1028.4 1028.5 0.6
26/07:40am 7.6 5.3 7.5 99 0.0 NNE 9 13 5 7 1028.4 1028.5 0.6
26/07:30am 7.9 5.7 7.9 100 0.0 NE 9 13 5 7 1028.3 1028.4 0.6
26/07:04am 7.6 5.3 7.5 99 0.0 ESE 9 11 5 6 1028.2 1028.3 0.4
26/07:01am 7.6 5.3 7.5 99 0.0 ESE 9 11 5 6 1028.1 1028.2 0.4
26/07:00am 7.5 5.6 7.4 99 0.0 ESE 7 11 4 6 1028.2 1028.3 0.4
26/06:41am 6.6 4.5 6.5 99 0.0 SSE 7 9 4 5 1028.0 1028.1 0.4
26/06:30am 6.0 4.3 5.9 99 0.0 SE 4 9 2 5 1027.8 1027.9 0.4
26/06:00am 6.4 3.8 6.3 99 0.0 E 9 13 5 7 1027.4 1027.5 0.4
26/05:59am 6.4 3.8 6.3 99 0.0 ESE 9 13 5 7 1027.4 1027.5 0.4
26/05:51am 7.5 4.4 7.4 99 0.0 SSE 13 17 7 9 1027.2 1027.3 0.4
26/05:30am 7.1 3.6 7.0 99 0.0 S 15 17 8 9 1027.3 1027.4 0.4
26/05:00am 6.4 3.8 6.3 99 0.0 SE 9 9 5 5 1027.2 1027.3 0.4
26/04:30am 6.9 4.8 6.8 99 0.0 SSE 7 9 4 5 1027.2 1027.3 0.4
26/04:00am 6.8 3.6 6.7 99 0.0 SSE 13 15 7 8 1027.4 1027.5 0.4
26/03:30am 7.0 5.0 6.9 99 0.0 SSE 7 9 4 5 1027.4 1027.5 0.4
26/03:00am 7.2 5.2 7.1 99 0.0 SE 7 9 4 5 1027.7 1027.8 0.4
26/02:30am 6.8 4.3 6.7 99 0.0 ESE 9 11 5 6 1027.8 1027.9 0.2
26/02:13am 7.5 5.6 7.4 99 0.0 E 7 9 4 5 1028.0 1028.1 0.2
26/02:00am 7.7 5.8 7.6 99 0.0 ENE 7 9 4 5 1028.1 1028.2 0.2
26/01:30am 8.3 6.6 8.2 99 0.0 ESE 7 9 4 5 1028.4 1028.5 0.2
26/01:00am 9.0 6.3 8.9 99 0.0 SSE 13 15 7 8 1028.4 1028.5 0.2
26/12:30am 8.6 5.8 8.5 99 0.0 SSE 13 15 7 8 1028.4 1028.5 0.2
26/12:00am 9.0 7.4 8.7 98 0.1 SSE 7 9 4 5 1028.7 1028.8 0.2
 
Date/Time
EST
Temp
°C
App
Temp
°C
Dew
Point
Rel
Hum
%
Delta-T
°C
Wind Press
QNH
hPa
Press
MSL
hPa
Rain
since 9 am
mm
Dir
 
Spd
km/h
Gust
km/h
Spd
kts
Gust
kts
25/11:30pm 9.3 7.0 9.0 98 0.1 SSE 11 15 6 8 1028.6 1028.7 0.2
25/11:00pm 8.9 6.1 8.5 97 0.2 SE 13 17 7 9 1028.5 1028.6 0.2
25/10:30pm 8.7 6.2 8.1 96 0.3 SE 11 13 6 7 1028.6 1028.7 0.2
25/10:00pm 9.5 6.7 8.7 95 0.4 SE 13 15 7 8 1028.6 1028.7 0.2
25/09:30pm 9.8 7.0 8.7 93 0.5 SE 13 15 7 8 1028.7 1028.8 0.2
25/09:00pm 10.5 7.9 9.4 93 0.5 SE 13 17 7 9 1028.7 1028.8 0.2
25/08:30pm 11.0 7.8 9.8 92 0.6 SSE 17 20 9 11 1028.5 1028.6 0.2
25/08:00pm 11.5 7.9 9.9 90 0.8 SSE 19 26 10 14 1028.2 1028.3 0.2
25/07:30pm 11.5 8.3 9.8 89 0.9 SSE 17 20 9 11 1028.1 1028.2 0.2
25/07:00pm 11.8 8.8 9.4 85 1.2 S 15 20 8 11 1028.0 1028.1 0.2
25/06:30pm 12.1 8.4 9.5 84 1.3 S 19 24 10 13 1027.7 1027.8 0.2
25/06:00pm 12.6 9.5 8.9 78 1.8 SSE 15 20 8 11 1027.3 1027.4 0.2
25/05:30pm 13.5 10.4 9.0 74 2.3 SSE 15 20 8 11 1026.8 1026.9 0.2
25/05:00pm 14.0 9.2 8.8 71 2.6 SSE 24 32 13 17 1026.5 1026.6 0.2
25/04:30pm 14.4 9.6 9.0 70 2.7 SSE 24 30 13 16 1026.4 1026.5 0.2
25/04:00pm 14.4 10.4 9.0 70 2.7 SSE 20 26 11 14 1026.3 1026.4 0.2
25/03:30pm 15.0 10.4 9.6 70 2.8 SE 24 30 13 16 1026.2 1026.3 0.2
25/03:00pm 14.9 10.2 9.1 68 2.9 SE 24 33 13 18 1026.1 1026.2 0.2
25/02:30pm 14.9 9.6 8.4 65 3.3 SE 26 35 14 19 1026.1 1026.2 0.2
25/02:00pm 14.4 9.5 8.4 67 3.0 SSE 24 35 13 19 1026.2 1026.3 0.2
25/01:30pm 14.8 10.7 10.0 73 2.5 SE 22 30 12 16 1026.1 1026.2 0.2
25/01:00pm 14.1 9.8 9.3 73 2.4 SE 22 28 12 15 1026.3 1026.4 0.2
25/12:30pm 14.4 11.6 11.2 81 1.7 SE 17 24 9 13 1026.4 1026.5 0.2
25/12:00pm 13.5 11.8 11.2 86 1.2 E 11 13 6 7 1026.7 1026.8 0.2
25/11:40am 13.5 12.6 12.7 95 0.4 ENE 9 15 5 8 1027.0 1027.1 0.2
25/11:30am 12.5 11.4 12.0 97 0.3 ENE 9 13 5 7 1027.1 1027.2 0.2
25/11:00am 12.1 10.1 11.5 96 0.3 ESE 13 20 7 11 1027.1 1027.2 0.2
25/10:51am 11.9 9.8 11.1 95 0.4 ESE 13 15 7 8 1027.1 1027.2 0.0
25/10:41am 12.1 10.9 11.5 96 0.3 E 9 13 5 7 1027.0 1027.1 0.0
25/10:30am 11.9 10.9 11.1 95 0.4 E 7 9 4 5 1026.8 1026.9 0.0
25/10:21am 11.8 11.8 11.0 95 0.4 SW 2 7 1 4 1026.8 1026.9 0.0
25/10:00am 11.6 10.8 11.0 96 0.3 W 6 9 3 5 1026.7 1026.8 0.0
25/09:30am 11.4 10.4 11.1 98 0.2 W 7 11 4 6 1026.5 1026.6 0.0
25/09:00am 11.1 10.1 10.9 99 0.1 W 7 13 4 7 1026.2 1026.3 7.4
25/08:48am 11.1 10.1 10.9 99 0.1 W 7 11 4 6 1026.1 1026.2 7.4
25/08:38am 11.0 9.2 10.8 99 0.1 WNW 11 17 6 9 1025.9 1026.0 7.4
25/08:30am 10.9 8.7 10.7 99 0.1 WNW 13 17 7 9 1025.9 1026.0 7.4
25/08:15am 10.8 8.9 10.5 98 0.2 WNW 11 15 6 8 1025.7 1025.8 7.2
25/08:00am 10.7 8.8 10.4 98 0.2 WNW 11 19 6 10 1025.6 1025.7 6.0
25/07:30am 10.7 8.8 10.4 98 0.2 WNW 11 17 6 9 1025.2 1025.3 5.6
25/07:11am 10.7 8.4 10.4 98 0.2 WNW 13 19 7 10 1024.9 1025.0 5.6
25/07:00am 10.6 8.6 10.3 98 0.2 WNW 11 17 6 9 1024.7 1024.8 5.4
25/06:56am 10.7 8.4 10.4 98 0.2 WNW 13 19 7 10 1024.7 1024.8 5.4
25/06:36am 10.8 8.5 10.5 98 0.2 WNW 13 19 7 10 1024.5 1024.6 5.4
25/06:30am 10.8 8.5 10.5 98 0.2 WNW 13 20 7 11 1024.4 1024.5 5.2
25/06:19am 10.7 8.8 10.4 98 0.2 WNW 11 15 6 8 1024.3 1024.4 5.2
25/06:14am 10.7 8.8 10.4 98 0.2 WNW 11 15 6 8 1024.3 1024.4 5.0
25/06:12am 10.7 8.8 10.4 98 0.2 WNW 11 15 6 8 1024.3 1024.4 5.0
25/06:00am 10.7 8.3 10.2 97 0.3 WNW 13 20 7 11 1024.2 1024.3 5.0
25/05:42am 10.8 8.0 10.0 95 0.4 W 15 24 8 13 1024.0 1024.1 4.2
25/05:30am 10.6 7.7 9.8 95 0.4 W 15 24 8 13 1023.8 1023.9 4.2
25/05:00am 10.5 7.5 9.4 93 0.5 WNW 15 24 8 13 1023.7 1023.8 4.2

Other Formats:

Comma delimited format used in spreadsheet applications
http://www.bom.gov.au/fwo/IDV60801/IDV60801.94870.axf

JavaScript Object Notation format (JSON) in row-major order
http://www.bom.gov.au/fwo/IDV60801/IDV60801.94870.json